createdAt,value
2018-12-03T00:01:54.968Z,97137.38
2018-12-03T00:04:23.060Z,97129.22
2018-12-03T00:06:50.675Z,97125.81
2018-12-03T00:09:18.905Z,97119.47
2018-12-03T00:11:46.423Z,97121.61
2018-12-03T00:14:13.664Z,97129.39
2018-12-03T00:16:41.597Z,97116.12
2018-12-03T00:19:09.038Z,97111.17
2018-12-03T00:21:36.533Z,97107.44
2018-12-03T00:24:04.184Z,97108.25
2018-12-03T00:26:32.748Z,97096.04
2018-12-03T00:29:00.217Z,97094.34
2018-12-03T00:31:27.576Z,97091.59
2018-12-03T00:33:54.862Z,97098.55
2018-12-03T00:36:23.201Z,97105.42
2018-12-03T00:38:50.596Z,97101.17
2018-12-03T00:41:17.912Z,97100.94
2018-12-03T00:43:45.330Z,97089.96
2018-12-03T00:46:12.806Z,97091.02
2018-12-03T00:48:40.166Z,97094.95
2018-12-03T00:51:07.467Z,97095.96
2018-12-03T00:53:34.997Z,97096.61
2018-12-03T00:56:02.620Z,97091.66
2018-12-03T00:58:30.039Z,97093.20
2018-12-03T01:00:57.329Z,97089.58
2018-12-03T01:03:24.632Z,97078.01
2018-12-03T01:05:51.913Z,97076.92
2018-12-03T01:08:19.265Z,97078.30
2018-12-03T01:10:47.189Z,97073.96
2018-12-03T01:13:14.460Z,97085.27
2018-12-03T01:15:42.777Z,97072.53
2018-12-03T01:18:10.032Z,97067.66
2018-12-03T01:23:47.784Z,97067.19
2018-12-03T01:26:15.144Z,97056.19
2018-12-03T01:28:42.483Z,97054.88
2018-12-03T01:31:09.847Z,97059.84
2018-12-03T01:33:37.201Z,97058.06
2018-12-03T01:36:05.267Z,97062.98
2018-12-03T01:38:33.141Z,97058.52
2018-12-03T01:41:00.409Z,97068.58
2018-12-03T01:43:27.711Z,97067.56
2018-12-03T01:45:54.963Z,97061.53
2018-12-03T01:48:22.255Z,97067.95
2018-12-03T01:50:49.616Z,97069.13
2018-12-03T01:53:16.893Z,97068.88
2018-12-03T01:55:44.164Z,97067.09
2018-12-03T01:58:11.416Z,97064.08
2018-12-03T02:00:38.710Z,97062.00
2018-12-03T02:03:06.018Z,97065.94
2018-12-03T02:05:33.320Z,97062.22
2018-12-03T02:08:00.597Z,97065.23
2018-12-03T02:10:27.893Z,97070.58
2018-12-03T02:12:55.171Z,97066.93
2018-12-03T02:15:23.002Z,97075.37
2018-12-03T02:17:50.276Z,97084.20
2018-12-03T02:20:17.921Z,97083.05
2018-12-03T02:22:45.285Z,97084.59
2018-12-03T02:25:12.844Z,97082.50
2018-12-03T02:27:40.261Z,97081.34
2018-12-03T02:30:11.735Z,97083.23
2018-12-03T02:32:39.270Z,97080.80
2018-12-03T02:35:07.613Z,97079.27
2018-12-03T02:37:34.896Z,97076.25
2018-12-03T02:40:08.798Z,97079.47
2018-12-03T02:42:36.511Z,97081.41
2018-12-03T02:45:04.098Z,97079.53
2018-12-03T02:47:31.576Z,97082.62
2018-12-03T02:49:58.868Z,97080.38
2018-12-03T02:52:26.178Z,97080.63
2018-12-03T02:54:53.488Z,97089.67
2018-12-03T02:57:20.812Z,97089.13
2018-12-03T02:59:48.104Z,97092.69
2018-12-03T03:02:15.336Z,97087.98
2018-12-03T03:04:42.584Z,97085.09
2018-12-03T03:07:09.869Z,97088.64
2018-12-03T03:09:37.081Z,97083.16
2018-12-03T03:12:04.534Z,97080.14
2018-12-03T03:14:31.741Z,97083.00
2018-12-03T03:16:59.021Z,97073.03
2018-12-03T03:19:26.301Z,97068.83
2018-12-03T03:27:32.197Z,97056.23
2018-12-03T03:32:37.788Z,97046.83
2018-12-03T03:35:10.665Z,97053.28
2018-12-03T03:37:43.169Z,97057.76
2018-12-03T03:40:14.888Z,97075.73
2018-12-03T03:42:49.442Z,97066.61
2018-12-03T03:45:24.701Z,97060.59
2018-12-03T03:50:30.717Z,97058.58
2018-12-03T03:53:02.438Z,97057.00
2018-12-03T03:55:34.942Z,97055.69
2018-12-03T03:58:07.357Z,97039.77
2018-12-03T04:00:42.076Z,97041.50
2018-12-03T04:05:47.868Z,97026.80
2018-12-03T04:10:55.535Z,97017.27
2018-12-03T04:13:27.943Z,97011.52
2018-12-03T04:16:03.708Z,97033.19
2018-12-03T04:21:14.027Z,97032.25
2018-12-03T04:23:46.426Z,97026.63
2018-12-03T04:26:20.113Z,97023.22
2018-12-03T04:34:03.398Z,97020.35
2018-12-03T04:36:37.852Z,97012.67
2018-12-03T04:39:10.406Z,96998.77
2018-12-03T04:41:45.091Z,97003.68
2018-12-03T04:46:50.008Z,97012.80
2018-12-03T04:49:22.779Z,97023.76
2018-12-03T04:51:57.391Z,97038.32
2018-12-03T04:57:00.851Z,97048.09
2018-12-03T04:59:33.546Z,97048.90
2018-12-03T05:02:07.246Z,97052.09
2018-12-03T05:07:11.097Z,97060.45
2018-12-03T05:09:43.014Z,97049.78
2018-12-03T05:12:17.438Z,97053.06
2018-12-03T05:17:21.522Z,97063.45
2018-12-03T05:19:54.140Z,97063.62
2018-12-03T05:22:28.693Z,97064.17
2018-12-03T05:27:32.191Z,97066.69
2018-12-03T05:32:41.800Z,97065.81
2018-12-03T05:35:14.384Z,97064.92
2018-12-03T05:37:47.092Z,97068.78
2018-12-03T05:40:23.706Z,97068.52
2018-12-03T05:42:58.091Z,97070.38
2018-12-03T05:45:30.491Z,97073.27
2018-12-03T05:48:03.118Z,97071.34
2018-12-03T05:50:37.913Z,97068.48
2018-12-03T05:55:40.440Z,97081.80
2018-12-03T06:03:23.603Z,97090.27
2018-12-03T06:05:56.061Z,97081.77
2018-12-03T06:08:28.570Z,97071.65
2018-12-03T06:11:02.408Z,97098.10
2018-12-03T06:13:37.383Z,97090.23
2018-12-03T06:16:09.336Z,97093.08
2018-12-03T06:18:44.154Z,97086.17
2018-12-03T06:23:46.401Z,97084.78
2018-12-03T06:28:50.345Z,97083.03
2018-12-03T06:31:22.219Z,97090.03
2018-12-03T06:33:53.936Z,97091.11
2018-12-03T06:36:28.642Z,97095.86
2018-12-03T06:41:34.171Z,97108.69
2018-12-03T06:44:06.574Z,97105.13
2018-12-03T06:46:40.189Z,97108.56
2018-12-03T06:51:46.171Z,97134.38
2018-12-03T06:54:18.375Z,97145.55
2018-12-03T06:56:50.183Z,97129.59
2018-12-03T06:59:24.047Z,97131.98
2018-12-03T07:04:26.627Z,97107.26
2018-12-03T07:06:58.422Z,97093.89
2018-12-03T07:09:31.342Z,97089.48
2018-12-03T07:12:05.203Z,97083.12
2018-12-03T07:14:39.926Z,97079.05
2018-12-03T07:17:12.862Z,97072.33
2018-12-03T07:19:45.486Z,97079.25
2018-12-03T07:22:18.349Z,97074.27
2018-12-03T07:24:51.184Z,97086.47
2018-12-03T07:27:23.006Z,97094.43
2018-12-03T07:29:57.017Z,97093.62
2018-12-03T07:34:59.729Z,97092.69
2018-12-03T07:37:31.528Z,97105.20
2018-12-03T07:40:07.288Z,97113.36
2018-12-03T07:42:45.160Z,97113.43
2018-12-03T07:45:16.911Z,97109.61
2018-12-03T07:47:54.924Z,97117.11
2018-12-03T07:50:28.986Z,97128.16
2018-12-03T07:53:01.114Z,97125.27
2018-12-03T07:55:33.711Z,97129.47
2018-12-03T08:00:43.267Z,97140.06
2018-12-03T08:03:15.885Z,97129.59
2018-12-03T08:05:49.845Z,97136.16
2018-12-03T08:10:54.418Z,97132.22
2018-12-03T08:16:00.999Z,97126.68
2018-12-03T08:18:33.581Z,97124.39
2018-12-03T08:21:08.263Z,97118.75
2018-12-03T08:26:13.725Z,97125.09
2018-12-03T08:28:45.580Z,97129.65
2018-12-03T08:31:18.291Z,97139.11
2018-12-03T08:33:53.071Z,97132.17
2018-12-03T08:36:25.506Z,97129.16
2018-12-03T08:39:00.098Z,97138.75
2018-12-03T08:44:11.928Z,97133.99
2018-12-03T08:46:46.465Z,97145.27
2018-12-03T08:49:18.379Z,97144.91
2018-12-03T08:51:52.488Z,97151.70
2018-12-03T08:56:55.282Z,97155.55
2018-12-03T08:59:27.342Z,97148.91
2018-12-03T09:02:01.913Z,97160.28
2018-12-03T09:09:42.796Z,97165.75
2018-12-03T09:12:14.489Z,97165.94
2018-12-03T09:14:46.168Z,97169.95
2018-12-03T09:17:20.920Z,97170.97
2018-12-03T09:22:24.000Z,97164.65
2018-12-03T09:27:30.188Z,97168.52
2018-12-03T09:30:02.870Z,97165.50
2018-12-03T09:32:37.302Z,97171.67
2018-12-03T09:37:40.260Z,97176.53
2018-12-03T09:40:12.839Z,97176.06
2018-12-03T09:42:56.624Z,97179.34
2018-12-03T09:50:35.541Z,97179.01
2018-12-03T09:53:08.245Z,97181.48
2018-12-03T09:55:40.418Z,97187.32
2018-12-03T09:58:23.680Z,97181.06
2018-12-03T10:00:57.798Z,97177.56
2018-12-03T10:06:10.897Z,97173.41
2018-12-03T10:08:42.570Z,97176.81
2018-12-03T10:11:22.554Z,97170.85
2018-12-03T10:13:56.319Z,97164.67
2018-12-03T10:19:03.630Z,97156.23
2018-12-03T10:21:35.680Z,97166.25
2018-12-03T10:24:08.098Z,97173.73
2018-12-03T10:26:40.599Z,97166.25
2018-12-03T10:29:15.478Z,97161.93
2018-12-03T10:34:28.067Z,97152.95
2018-12-03T10:37:00.683Z,97154.48
2018-12-03T10:39:37.312Z,97155.34
2018-12-03T10:42:12.703Z,97155.17
2018-12-03T10:44:45.030Z,97156.44
2018-12-03T10:47:17.346Z,97149.92
2018-12-03T10:49:49.922Z,97145.92
2018-12-03T10:55:00.437Z,97145.48
2018-12-03T10:57:32.327Z,97144.01
2018-12-03T11:00:42.142Z,97147.82
2018-12-03T11:06:03.810Z,97146.34
2018-12-03T11:08:36.393Z,97149.60
2018-12-03T11:11:11.622Z,97147.56
2018-12-03T11:13:46.128Z,97146.33
2018-12-03T11:18:54.559Z,97146.78
2018-12-03T11:24:05.837Z,97143.70
2018-12-03T11:26:37.755Z,97147.82
2018-12-03T11:29:11.734Z,97145.12
2018-12-03T11:36:54.495Z,97156.06
2018-12-03T11:39:26.430Z,97143.83
2018-12-03T11:41:59.222Z,97136.69
2018-12-03T11:44:32.052Z,97132.90
2018-12-03T11:47:03.970Z,97137.98
2018-12-03T11:52:17.062Z,97137.80
2018-12-03T11:57:20.276Z,97126.34
2018-12-03T11:59:52.900Z,97128.20
2018-12-03T12:02:27.570Z,97123.80
2018-12-03T12:07:30.784Z,97111.97
2018-12-03T12:12:34.285Z,97116.58
2018-12-03T12:15:06.024Z,97111.49
2018-12-03T12:17:38.691Z,97121.56
2018-12-03T12:20:13.510Z,97119.50
2018-12-03T12:25:17.100Z,97114.62
2018-12-03T12:27:48.876Z,97113.81
2018-12-03T12:30:23.518Z,97120.09
2018-12-03T12:32:58.234Z,97108.63
2018-12-03T12:38:03.750Z,97113.73
2018-12-03T12:40:35.425Z,97104.83
2018-12-03T12:43:07.198Z,97104.83
2018-12-03T12:46:01.245Z,97101.17
2018-12-03T12:51:11.119Z,97104.88
2018-12-03T12:53:43.196Z,97100.06
2018-12-03T12:56:14.887Z,97101.84
2018-12-03T12:58:48.629Z,97102.92
2018-12-03T13:03:52.566Z,97092.69
2018-12-03T13:09:02.878Z,97108.73
2018-12-03T13:11:35.260Z,97108.88
2018-12-03T13:14:10.230Z,97093.38
2018-12-03T13:19:13.348Z,97080.06
2018-12-03T13:21:45.530Z,97068.39
2018-12-03T13:24:17.471Z,97071.39
2018-12-03T13:26:52.106Z,97078.49
2018-12-03T13:31:55.351Z,97087.41
2018-12-03T13:34:27.186Z,97085.02
2018-12-03T13:37:03.124Z,97080.92
2018-12-03T13:39:41.702Z,97085.73
2018-12-03T13:44:53.352Z,97086.06
2018-12-03T13:50:01.461Z,97088.02
2018-12-03T13:55:05.006Z,97089.25
2018-12-03T13:57:37.628Z,97078.14
2018-12-03T14:00:10.226Z,97082.86
2018-12-03T14:02:42.105Z,97078.36
2018-12-03T14:05:14.678Z,97089.27
2018-12-03T14:07:49.396Z,97095.77
2018-12-03T14:10:22.071Z,97092.83
2018-12-03T14:12:54.644Z,97103.60
2018-12-03T14:15:26.440Z,97099.11
2018-12-03T14:18:07.196Z,97091.77
2018-12-03T14:23:16.144Z,97088.97
2018-12-03T14:25:50.386Z,97099.18
2018-12-03T14:31:00.550Z,97105.86
2018-12-03T14:33:33.109Z,97109.41
2018-12-03T14:38:43.136Z,97114.34
2018-12-03T14:41:15.981Z,97114.80
2018-12-03T14:43:50.825Z,97107.59
2018-12-03T14:46:23.162Z,97120.73
2018-12-03T14:49:01.447Z,97115.09
2018-12-03T14:51:36.086Z,97123.90
2018-12-03T14:56:42.578Z,97120.90
2018-12-03T14:59:15.348Z,97118.63
2018-12-03T15:01:47.003Z,97124.18
2018-12-03T15:04:21.102Z,97122.52
2018-12-03T15:09:36.524Z,97134.77
2018-12-03T15:14:42.242Z,97137.27
2018-12-03T15:17:15.178Z,97124.06
2018-12-03T15:19:47.734Z,97122.48
2018-12-03T15:22:23.548Z,97116.42
2018-12-03T15:27:27.244Z,97100.61
2018-12-03T15:35:11.083Z,97100.14
2018-12-03T15:37:43.574Z,97103.03
2018-12-03T15:40:19.509Z,97103.57
2018-12-03T15:42:54.391Z,97110.56
2018-12-03T15:45:26.478Z,97105.00
2018-12-03T15:48:01.502Z,97103.41
2018-12-03T15:50:44.345Z,97096.07
2018-12-03T15:56:00.183Z,97095.46
2018-12-03T16:01:04.627Z,97093.77
2018-12-03T16:03:39.965Z,97089.90
2018-12-03T16:06:11.972Z,97090.17
2018-12-03T16:08:44.553Z,97096.92
2018-12-03T16:11:18.947Z,97089.36
2018-12-03T16:16:24.973Z,97079.49
2018-12-03T16:18:56.817Z,97079.69
2018-12-03T16:21:31.464Z,97080.07
2018-12-03T16:26:34.735Z,97085.00
2018-12-03T16:29:06.629Z,97088.09
2018-12-03T16:31:42.669Z,97089.79
2018-12-03T16:34:17.239Z,97093.17
2018-12-03T16:36:49.815Z,97095.92
2018-12-03T16:39:22.430Z,97092.72
2018-12-03T16:41:56.248Z,97091.80
2018-12-03T16:47:02.085Z,97084.27
2018-12-03T16:49:33.903Z,97084.38
2018-12-03T16:52:08.232Z,97079.71
2018-12-03T16:57:13.763Z,97069.51
2018-12-03T16:59:46.470Z,97067.07
2018-12-03T17:02:19.078Z,97066.56
2018-12-03T17:04:53.660Z,97070.03
2018-12-03T17:09:57.818Z,97063.27
2018-12-03T17:15:05.053Z,97066.37
2018-12-03T17:17:37.664Z,97064.21
2018-12-03T17:20:10.309Z,97058.42
2018-12-03T17:22:47.381Z,97063.50
2018-12-03T17:27:50.258Z,97066.03
2018-12-03T17:32:53.587Z,97055.38
2018-12-03T17:35:26.288Z,97065.11
2018-12-03T17:37:57.961Z,97069.67
2018-12-03T17:40:32.421Z,97062.99
2018-12-03T17:45:35.230Z,97061.95
2018-12-03T17:50:40.231Z,97073.11
2018-12-03T17:53:13.021Z,97070.09
2018-12-03T17:55:45.757Z,97059.05
2018-12-03T17:58:19.370Z,97058.59
2018-12-03T18:03:24.875Z,97055.41
2018-12-03T18:06:00.871Z,97053.84
2018-12-03T18:11:08.317Z,97044.72
2018-12-03T18:13:40.068Z,97056.03
2018-12-03T18:16:16.046Z,97058.65
2018-12-03T18:18:51.037Z,97050.09
2018-12-03T18:23:56.956Z,97036.02
2018-12-03T18:26:33.040Z,97033.78
2018-12-03T18:31:43.565Z,97013.87
2018-12-03T18:34:15.822Z,97022.60
2018-12-03T18:36:49.681Z,97020.37
2018-12-03T18:41:55.752Z,97031.88
2018-12-03T18:44:28.205Z,97027.73
2018-12-03T18:47:03.130Z,97025.31
2018-12-03T18:52:10.935Z,97028.47
2018-12-03T18:54:43.238Z,97030.64
2018-12-03T18:57:19.729Z,97028.52
2018-12-03T18:59:52.543Z,97028.05
2018-12-03T19:05:03.749Z,97035.04
2018-12-03T19:07:36.410Z,97034.88
2018-12-03T19:10:15.188Z,97028.63
2018-12-03T19:12:49.749Z,97023.45
2018-12-03T19:17:58.359Z,97025.38
2018-12-03T19:20:30.443Z,97030.23
2018-12-03T19:23:05.266Z,97037.27
2018-12-03T19:28:09.064Z,97028.59
2018-12-03T19:30:43.063Z,97028.08
2018-12-03T19:33:15.902Z,97021.80
2018-12-03T19:35:48.566Z,97018.19
2018-12-03T19:38:26.727Z,97015.58
2018-12-03T19:41:01.434Z,97017.67
2018-12-03T19:51:22.873Z,97016.93
2018-12-03T19:53:55.722Z,97026.39
2018-12-03T19:56:28.143Z,97036.03
2018-12-03T20:01:38.036Z,97036.81
2018-12-03T20:04:11.038Z,97043.75
2018-12-03T20:06:46.618Z,97041.52
2018-12-03T20:09:21.149Z,97041.78
2018-12-03T20:11:53.825Z,97049.32
2018-12-03T20:14:27.769Z,97036.35
2018-12-03T20:17:00.287Z,97051.09
2018-12-03T20:19:36.533Z,97044.30
2018-12-03T20:22:10.516Z,97052.80
2018-12-03T20:30:12.178Z,97032.45
2018-12-03T20:35:20.818Z,97044.92
2018-12-03T20:37:53.495Z,97045.25
2018-12-03T20:40:40.613Z,97047.34
2018-12-03T20:45:55.645Z,97053.90
2018-12-03T20:48:28.564Z,97044.54
2018-12-03T20:51:01.191Z,97049.12
2018-12-03T20:53:41.728Z,97055.81
2018-12-03T20:56:16.381Z,97057.27
2018-12-03T21:03:57.539Z,97067.89
2018-12-03T21:06:30.160Z,97070.38
2018-12-03T21:09:05.160Z,97089.19
2018-12-03T21:14:20.287Z,97104.04
2018-12-03T21:16:56.527Z,97103.58
2018-12-03T21:19:31.130Z,97108.05
2018-12-03T21:22:03.483Z,97101.20
2018-12-03T21:24:38.123Z,97102.27
2018-12-03T21:29:41.025Z,97113.28
2018-12-03T21:32:12.769Z,97112.36
2018-12-03T21:34:47.361Z,97122.46
2018-12-03T21:39:53.243Z,97124.05
2018-12-03T21:42:25.429Z,97129.03
2018-12-03T21:44:59.690Z,97135.45
2018-12-03T21:50:07.415Z,97145.17
2018-12-03T21:52:39.968Z,97147.80
2018-12-03T21:55:14.885Z,97150.73
2018-12-03T21:57:51.218Z,97144.71
2018-12-03T22:00:23.561Z,97141.09
2018-12-03T22:05:36.883Z,97141.27
2018-12-03T22:08:09.374Z,97142.66
2018-12-03T22:10:43.856Z,97143.27
2018-12-03T22:15:47.259Z,97130.53
2018-12-03T22:18:19.225Z,97122.73
2018-12-03T22:20:51.640Z,97128.09
2018-12-03T22:23:26.261Z,97131.18
2018-12-03T22:28:30.028Z,97127.06
2018-12-03T22:31:02.767Z,97143.39
2018-12-03T22:36:12.526Z,97158.42
2018-12-03T22:38:45.097Z,97165.94
2018-12-03T22:41:17.087Z,97170.16
2018-12-03T22:43:49.741Z,97171.08
2018-12-03T22:46:24.155Z,97171.47
2018-12-03T22:51:30.245Z,97176.53
2018-12-03T22:56:31.894Z,97193.84
2018-12-03T22:59:04.389Z,97195.37
2018-12-03T23:01:39.379Z,97204.34
2018-12-03T23:06:43.487Z,97220.77
2018-12-03T23:09:15.250Z,97231.94
2018-12-03T23:11:49.884Z,97238.90
2018-12-03T23:16:53.127Z,97236.91
2018-12-03T23:19:25.824Z,97236.84
2018-12-03T23:21:59.435Z,97242.69
2018-12-03T23:27:04.998Z,97246.88
2018-12-03T23:29:37.640Z,97245.41
2018-12-03T23:32:12.262Z,97251.75
2018-12-03T23:39:53.901Z,97254.81
2018-12-03T23:45:04.518Z,97262.69
2018-12-03T23:47:37.331Z,97256.27
2018-12-03T23:50:09.025Z,97266.08
2018-12-03T23:52:43.629Z,97266.77
2018-12-03T23:55:17.372Z,97269.91
